Startpagina
METAR-TAF:

METAR-TAF

Vliegvelden :

Luchthaven Ivato

Antananarivo, Madagaskar

breedte: 18-48S, lengte: 047-29E, hoogte: 1279 m

Actueel weer

Dit bericht is 31 minuten geleden gemaakt, om 08:00 UTC
Wind 11 kt uit het zuiden, variërend tussen het oostzuidoosten en het zuidzuidwesten
Temperatuur 16°C
Vochtigheid 55%
Druk 1026 hPa
Zicht 10 km of meer
Weinig wolken op 2000 ft

METAR: FMMI 180800Z 17011KT 120V200 9999 FEW020 16/07 Q1026 NOSIG

Tijdstip: 11:31 (08:31 UTC)

Verwachting

Dit bericht is 3 uur en het 31 minuten geleden gemaakt, om 05:00 UTC
Verwachting geldig van 18 om 06 UTC tot 19 om 12 UTC
Wind 12 kt uit het zuidzuidoosten
Zicht 10 km of meer
Weinig wolken op 1700 ft
Gebroken wolken op 2000 ft
Kans 30% :
Tijdelijke
van 19 om 01 UTC tot 19 om 05 UTC
Zicht: 4500 m
motregen

TAF: FMMI 180500Z 1806/1912 16012KT 9999 FEW017 BKN020 PROB30 TEMPO 1901/1905 4500 DZ

Waarnemingen en weersverwachtingen van meer dan 4000 vliegvelden (METAR en TAF).

De beschikbare stations zijn de gele en rode punten op de kaart.

Ga met uw muis naar het station om de naam te zien.

Klik dan om waarnemingen en weersverwachtingen te zien.

kaart wijzigen: klik op de groene knoppen met een zwart kruis om in te zoomen, op de groene knop met een streepje om uit te zoomen of op de groene pijlen voor aangrenzende kaarten.


METAR-TAF: